Hovedside
METAR-TAF:

METAR-TAF

Lufthavner :

Sogndal, Norge

Sogndal lufthamn

breddegrad: 61-09N, lengdegrad: 007-08E, høyde over havet: 49 m

Gjeldene værobservasjon

Denne rapporten ble laget for 47 minutter siden, klokken 03:50 UTC
Vind 7 kt fra Nordøst
Temperatur -1°C
Luftfuktighet 54%
Trykk 999 hPa
Sikt 10 km eller mer
Få skyer i en høyde av 2000 ft

METAR: ENSG 250350Z 05007KT 9999 FEW020 M01/M09 Q0999 RMK WIND 3806FT 35019KT

Tid: 06:37 (04:37 UTC)


TAF: fraværende

Værobservasjoner og værvarsel for over 4000 flyplasser (METAR- og TAF-rapporter).

Tilgjengelige stasjoner er representert av de røde og gule prikkene på kartet.

Hold musepekeren over prikken for å se navnet på stasjonen.

Klikk så for å se værobservasjoner og -varsler.

For å forandre kartet kan du klikke på den grønne knappen med svart kryss for å zoome inn, på den grønne knappen med strek for å zoome ut, eller på de grønne pilene for å se tilstøtende kart.


METAR-TAF: